WAOO/BDJ METAR and TAF weather

Enter ICAO airport designator
Station Type Date Time Source
WAOO METAR 2019/06/27 09:30 UTC NOAA

WAOO 270930Z 13004KT 9999 SCT019 27/25 Q1008 TEMPO TL0900 7000 RA


Station Type Date Time Source
WAOO Decoded METAR 2019/06/27 09:30 UTC NOAA

Station name not available
Jun 27, 2019 - 05:30 AM EDT / 2019.06.27 0930 UTC
Wind: from the SE (130 degrees) at 5 MPH (4 KT):0
Visibility: greater than 7 mile(s):0
Sky conditions: partly cloudy
Temperature: 80 F (27 C)
Dew Point: 77 F (25 C)
Relative Humidity: 88%
Pressure (altimeter): 29.77 in. Hg (1008 hPa)
ob: WAOO 270930Z 13004KT 9999 SCT019 27/25 Q1008 TEMPO TL0900 7000 RA
cycle: 9

Station Type Date Time Source
WAOO TAF 2019/06/27 12:30 UTC NOAA

TAF WAOO 271100Z 2712/2812 15006KT 9999 FEW020=

Example: see airport list